Cochin International Airport
VOCI : now visible

Airfield :











YOU CAN JOIN US ON...

 
LOGIN :

Register | Disclaimer

   EN    FR    IT 

 









Legend :    VFR   Marginal VFR   IFR   Intensive IFR   Very Intensive IFR
Visi :
Ceiling :
>= 8 km
>= 3000ft
5 to 8 km
1000 to 3000 ft
1500m to 5 km
500 to 1000 ft
800 to 1500m
200 to 500 ft
< 800m
< 200 ft
Symbols :   Thunderstorms  Fog  Heavy snow  Heavy precipitations  Wind > 20 kt






- Airport Elevation : 30 ft
- IATA code : COK


VOCI - Cochin International

CURRENT METAR :
  • 181730Z 12004KT 4000 BR SCT012 FEW025CB BKN080 26/25 Q1010 TEMPO 3000 TSRA

EXPIRED METARs :
  • 181700Z 10003KT 4000 DZ SCT012 FEW025CB BKN080 26/24 Q1010 TEMPO 3000 TSRA
  • 181630Z 10003KT 4000 BR SCT012 BKN080 26/24 Q1010 NOSIG
  • 181600Z 00000KT 4000 BR SCT012 FEW025CB BKN080 26/24 Q1010 NOSIG
  • 181530Z 00000KT 4000 BR SCT012 FEW025CB BKN080 26/24 Q1009 NOSIG
  • 181500Z 24003KT 4000 BR SCT015 FEW025CB BKN080 26/24 Q1009 NOSIG
  • 181430Z 25005KT 4000 BR SCT015 FEW025CB BKN080 27/25 Q1009 NOSIG
  • 181400Z 21003KT 4000 BR SCT015 FEW025CB BKN080 28/25 Q1008 NOSIG
  • 181330Z 00000KT 4000 BR SCT015 FEW025CB BKN080 28/26 Q1007 NOSIG
  • 181300Z 24002KT 4000 BR SCT015 FEW025CB BKN080 28/25 Q1007 NOSIG

TAF TAF VOCI
Valid from the 18 at 18:00 until the 20 at 00:00 UTC


181700Z 1818/1924 00000KT 4000 BR SCT012 FEW025CB BKN080
TEMPO 1822/1902 11005KT 2500 TSRA BR
BECMG 1903/1905 18005KT 4000 BR SCT012 BKN080
TEMPO 1908/1912 32010KT 3000 TSRA RA FEW008 SCT012 FEW025CB OVC080
BECMG 1914/1916 26010KT 4000 -RA BR
TEMPO 1922/1924 VRB02KT 2500 TSRA BR
VOMF FIR / Asia



MET'MAP, your aeronautical weather chart ! - Copyright ORBIFLY December 2007 - Disclaimer

ORBIFLY MET'MAP TEAM :

Programming & Development : Alexandra Zaïnal
Original concept : Baudouin d'Aumeries
Technical & hardware support : Manuel Goepfert
Assistance : Marc-Olivier Méhu




SOURCES & CREDITS :

   NOAA       Earth
Advisory